Time;durP1;ratioP1;P1;durP2;ratioP2;P2;SDS_P1;SDS_P2;PMS_P1;PMS_P2;Temp;Humidity;BMP_temperature;BMP_pressure;BME280_temperature;BME280_humidity;BME280_pressure;Samples;Min_cycle;Max_cycle;Signal;HPM_P1;HPM_P2
2022/09/04 00:01:17;;;;;;;2.75;2.03;;;20.20;92.30;;;;;;5053796;28;20037;-69
2022/09/04 00:03:59;;;;;;;1.83;1.35;;;20.20;92.40;;;;;;5055766;28;20115;-69
2022/09/04 00:06:32;;;;;;;2.10;1.80;;;20.20;92.40;;;;;;5055644;28;20025;-69
2022/09/04 00:09:02;;;;;;;1.75;1.63;;;20.20;92.50;;;;;;5055286;28;20032;-69
2022/09/04 00:12:03;;;;;;;1.77;1.55;;;20.20;92.30;;;;;;5055422;28;20068;-69
2022/09/04 00:14:41;;;;;;;1.73;1.58;;;20.20;92.40;;;;;;5055653;28;20041;-68
2022/09/04 00:17:15;;;;;;;1.88;1.58;;;20.20;92.40;;;;;;5054836;28;20060;-69
2022/09/04 00:19:58;;;;;;;2.75;1.95;;;20.20;92.30;;;;;;5055452;28;20060;-68
2022/09/04 00:22:33;;;;;;;1.60;1.50;;;20.20;92.40;;;;;;5055557;28;20462;-69
2022/09/04 00:25:31;;;;;;;1.45;1.33;;;20.20;92.30;;;;;;5054948;28;20491;-70
2022/09/04 00:28:09;;;;;;;2.30;1.70;;;20.20;92.10;;;;;;5054895;28;20446;-70
2022/09/04 00:30:45;;;;;;;2.08;1.50;;;20.20;92.20;;;;;;5055118;28;20076;-69
2022/09/04 00:33:27;;;;;;;2.00;1.50;;;20.20;92.30;;;;;;5054764;28;20040;-70
2022/09/04 00:35:58;;;;;;;2.13;1.63;;;20.10;92.50;;;;;;5054878;28;20056;-68
2022/09/04 00:38:27;;;;;;;;;;;20.10;92.60;;;;;;5055590;28;20029;-68
2022/09/04 00:41:13;;;;;;;1.85;1.60;;;20.10;92.60;;;;;;5055000;28;19905;-68
2022/09/04 00:43:55;;;;;;;2.13;1.52;;;20.00;92.70;;;;;;5055054;28;20033;-68
2022/09/04 00:46:40;;;;;;;;;;;20.00;92.70;;;;;;5055214;28;20017;-68
2022/09/04 00:49:31;;;;;;;1.73;1.52;;;20.00;92.80;;;;;;5054322;28;19971;-67
2022/09/04 00:52:15;;;;;;;;;;;20.00;92.90;;;;;;5054800;28;20446;-68
2022/09/04 00:55:03;;;;;;;1.52;1.42;;;20.00;93.00;;;;;;5054529;28;19919;-69
2022/09/04 00:57:32;;;;;;;5.18;1.60;;;19.90;93.10;;;;;;5054568;28;20478;-68
2022/09/04 01:00:15;;;;;;;1.15;1.05;;;19.90;93.40;;;;;;5054148;28;20032;-70
2022/09/04 01:03:14;;;;;;;1.42;1.33;;;19.90;93.60;;;;;;5054225;28;20025;-68
2022/09/04 01:05:50;;;;;;;2.10;1.70;;;19.90;93.40;;;;;;5054672;28;20028;-69
2022/09/04 01:09:01;;;;;;;1.40;1.30;;;19.90;93.60;;;;;;5054169;28;20029;-69
2022/09/04 01:11:43;;;;;;;3.07;1.33;;;19.90;93.60;;;;;;5053096;28;20095;-69
2022/09/04 01:14:11;;;;;;;1.30;1.20;;;19.90;93.60;;;;;;5054056;28;20036;-69
2022/09/04 01:16:54;;;;;;;1.60;1.50;;;19.90;93.40;;;;;;5054453;28;20381;-69
2022/09/04 01:19:43;;;;;;;3.15;1.50;;;19.90;93.50;;;;;;5053960;28;20111;-69
2022/09/04 01:22:15;;;;;;;4.03;1.70;;;19.90;93.50;;;;;;5053609;28;20032;-69
2022/09/04 01:25:04;;;;;;;2.30;1.50;;;19.90;93.50;;;;;;5054094;28;20025;-69
2022/09/04 01:27:44;;;;;;;3.83;1.63;;;19.90;93.60;;;;;;5054249;28;20033;-69
2022/09/04 01:30:16;;;;;;;2.05;1.48;;;19.90;93.50;;;;;;5053428;28;20037;-69
2022/09/04 01:33:24;;;;;;;2.58;1.85;;;19.90;93.60;;;;;;5053893;28;20029;-69
2022/09/04 01:36:05;;;;;;;2.35;1.83;;;19.90;93.60;;;;;;5053935;28;20078;-69
2022/09/04 01:38:54;;;;;;;1.57;1.30;;;19.90;93.50;;;;;;5053902;28;20031;-69
2022/09/04 01:41:35;;;;;;;2.15;1.30;;;19.90;93.60;;;;;;5053806;28;20024;-69
2022/09/04 01:44:05;;;;;;;2.87;1.50;;;19.90;93.50;;;;;;5053212;28;20025;-69
2022/09/04 01:46:38;;;;;;;1.60;1.50;;;19.90;93.50;;;;;;5054063;28;20057;-68
2022/09/04 01:49:09;;;;;;;1.55;1.45;;;19.90;93.60;;;;;;5053468;28;20025;-70
2022/09/04 01:51:50;;;;;;;2.35;1.77;;;19.90;93.50;;;;;;5053355;28;20053;-69
2022/09/04 01:54:55;;;;;;;1.70;1.60;;;19.90;93.70;;;;;;5052965;28;20081;-69
2022/09/04 01:57:45;;;;;;;1.50;1.40;;;19.90;94.20;;;;;;5053096;28;20033;-69
2022/09/04 02:00:11;;;;;;;2.67;1.67;;;19.90;94.30;;;;;;5053194;28;20029;-69
2022/09/04 02:02:46;;;;;;;1.45;1.35;;;19.90;94.80;;;;;;5053468;28;20075;-69
2022/09/04 02:05:28;;;;;;;3.05;1.70;;;19.80;95.00;;;;;;5052825;28;20446;-70
2022/09/04 02:08:23;;;;;;;2.97;1.45;;;19.80;95.70;;;;;;5052157;28;20437;-69
2022/09/04 02:11:03;;;;;;;1.60;1.50;;;19.80;96.00;;;;;;5032453;28;20046;-69
2022/09/04 02:14:05;;;;;;;1.95;1.77;;;19.70;96.40;;;;;;5053238;28;20495;-69
2022/09/04 02:16:57;;;;;;;1.75;1.60;;;19.70;96.50;;;;;;5053357;28;20112;-69
2022/09/04 02:19:57;;;;;;;2.05;1.42;;;19.70;96.60;;;;;;5044046;28;20037;-69
2022/09/04 02:22:38;;;;;;;2.97;1.48;;;19.60;97.00;;;;;;5052694;28;20474;-69
2022/09/04 02:25:13;;;;;;;1.80;1.40;;;19.60;97.40;;;;;;5052393;28;20381;-69
2022/09/04 02:28:04;;;;;;;1.85;1.60;;;19.60;97.60;;;;;;5053075;28;20036;-68
2022/09/04 02:31:02;;;;;;;1.95;1.42;;;19.60;97.50;;;;;;5053041;28;20465;-69
2022/09/04 02:33:47;;;;;;;1.75;1.50;;;19.60;98.10;;;;;;5047378;28;20107;-68
2022/09/04 02:36:48;;;;;;;1.48;1.38;;;19.50;98.10;;;;;;5052575;28;20369;-70
2022/09/04 02:39:23;;;;;;;1.95;1.60;;;19.50;98.20;;;;;;5052575;28;20457;-70
2022/09/04 02:42:13;;;;;;;2.65;1.63;;;19.50;98.10;;;;;;5053294;28;20118;-69
2022/09/04 02:44:57;;;;;;;2.83;1.65;;;19.50;98.50;;;;;;5051914;28;20123;-69
2022/09/04 02:47:32;;;;;;;2.50;1.50;;;19.50;98.60;;;;;;5052480;28;20039;-69
2022/09/04 02:50:37;;;;;;;1.70;1.60;;;19.50;98.40;;;;;;5052785;28;20051;-69
2022/09/04 02:53:24;;;;;;;2.25;1.65;;;19.50;98.50;;;;;;5044090;28;20084;-68
2022/09/04 02:56:24;;;;;;;1.45;1.35;;;19.50;98.30;;;;;;5053133;28;20033;-69
2022/09/04 02:59:41;;;;;;;1.50;1.40;;;19.50;98.20;;;;;;5053629;28;20025;-69
2022/09/04 03:02:27;;;;;;;3.92;1.63;;;19.50;98.60;;;;;;5040878;28;20074;-70
2022/09/04 03:05:05;;;;;;;1.88;1.38;;;19.50;98.60;;;;;;5053796;28;20086;-69
2022/09/04 03:07:57;;;;;;;1.65;1.35;;;19.60;98.70;;;;;;5053771;28;20059;-68
2022/09/04 03:10:30;;;;;;;2.38;1.60;;;19.60;98.80;;;;;;5052758;28;20091;-69
2022/09/04 03:13:12;;;;;;;6.22;1.50;;;19.60;98.80;;;;;;5052314;28;20037;-69
2022/09/04 03:15:45;;;;;;;;;;;19.60;98.60;;;;;;5052733;28;20021;-69
2022/09/04 03:18:49;;;;;;;1.80;1.27;;;19.60;98.70;;;;;;5052199;28;20345;-69
2022/09/04 03:21:22;;;;;;;2.78;1.40;;;19.60;98.50;;;;;;5031549;28;20072;-69
2022/09/04 03:23:53;;;;;;;1.42;1.33;;;19.60;98.40;;;;;;5034276;28;20084;-69
2022/09/04 03:26:42;;;;;;;1.50;1.40;;;19.60;98.40;;;;;;5035905;28;20425;-70
2022/09/04 03:29:08;;;;;;;1.85;1.35;;;19.60;98.60;;;;;;5056150;28;20029;-70
2022/09/04 03:32:13;;;;;;;1.73;1.33;;;19.60;98.60;;;;;;5055905;28;20048;-69
2022/09/04 03:34:45;;;;;;;1.98;1.40;;;19.50;98.50;;;;;;5055615;28;20397;-69
2022/09/04 03:37:21;;;;;;;1.60;1.50;;;19.50;98.60;;;;;;5055523;28;20482;-68
2022/09/04 03:40:16;;;;;;;1.48;1.38;;;19.50;98.50;;;;;;5056100;28;20029;-67
2022/09/04 03:43:14;;;;;;;1.95;1.40;;;19.50;98.30;;;;;;5051043;28;20504;-69
2022/09/04 03:46:07;;;;;;;2.03;1.27;;;19.50;98.30;;;;;;5056135;28;20033;-69
2022/09/04 03:48:50;;;;;;;1.60;1.50;;;19.50;98.30;;;;;;5055353;28;20060;-69
2022/09/04 03:51:42;;;;;;;1.40;1.20;;;19.50;98.30;;;;;;5055531;28;20024;-69
2022/09/04 03:54:27;;;;;;;1.70;1.60;;;19.50;98.40;;;;;;5056201;28;20043;-69
2022/09/04 03:57:18;;;;;;;2.83;1.70;;;19.50;98.40;;;;;;5055842;28;20117;-68
2022/09/04 04:00:07;;;;;;;1.90;1.35;;;19.50;98.40;;;;;;5055939;28;20029;-69
2022/09/04 04:03:11;;;;;;;1.80;1.70;;;19.50;98.60;;;;;;5055389;28;20033;-68
2022/09/04 04:05:51;;;;;;;2.30;1.85;;;19.50;98.80;;;;;;5055673;28;20442;-68
2022/09/04 04:08:28;;;;;;;3.38;1.70;;;19.50;98.90;;;;;;5055374;28;20393;-69
2022/09/04 04:11:17;;;;;;;1.98;1.30;;;19.40;99.20;;;;;;5055476;28;20470;-69
2022/09/04 04:14:21;;;;;;;1.92;1.52;;;19.40;99.20;;;;;;5055342;28;20025;-68
2022/09/04 04:17:11;;;;;;;2.03;1.50;;;19.40;99.50;;;;;;5055530;28;20083;-68
2022/09/04 04:19:42;;;;;;;5.53;1.70;;;19.40;99.70;;;;;;5055430;28;20032;-69
2022/09/04 04:22:19;;;;;;;1.45;1.27;;;19.30;99.80;;;;;;5055107;28;20068;-69
2022/09/04 04:25:06;;;;;;;1.63;1.52;;;19.30;99.90;;;;;;5055575;28;20031;-68
2022/09/04 04:28:01;;;;;;;2.13;1.60;;;19.30;99.90;;;;;;5054998;28;20036;-68
2022/09/04 04:30:36;;;;;;;3.40;1.48;;;19.20;99.90;;;;;;5054543;28;20047;-68
2022/09/04 04:33:12;;;;;;;1.52;1.42;;;19.20;99.90;;;;;;5053040;28;20036;-68
2022/09/04 04:35:54;;;;;;;2.33;1.30;;;19.10;99.90;;;;;;5055168;28;20195;-69
2022/09/04 04:38:26;;;;;;;1.42;1.33;;;19.20;99.90;;;;;;5054778;28;20028;-69
2022/09/04 04:41:20;;;;;;;1.85;1.50;;;19.10;99.90;;;;;;5054827;28;20470;-68
2022/09/04 04:43:57;;;;;;;1.75;1.25;;;19.10;99.90;;;;;;5055127;28;20121;-68
2022/09/04 04:46:41;;;;;;;1.60;1.30;;;19.10;99.90;;;;;;5054265;28;20104;-69
2022/09/04 04:49:37;;;;;;;1.40;1.10;;;19.10;99.90;;;;;;5053683;28;20025;-69
2022/09/04 04:52:18;;;;;;;1.63;1.50;;;19.10;99.90;;;;;;5054791;28;20032;-68
2022/09/04 04:55:20;;;;;;;1.75;1.50;;;19.10;99.90;;;;;;5054573;28;20347;-68
2022/09/04 04:58:02;;;;;;;1.40;1.30;;;19.10;99.90;;;;;;5054618;28;20055;-68
2022/09/04 05:00:41;;;;;;;2.60;1.58;;;19.00;99.90;;;;;;5054310;28;20199;-69
2022/09/04 05:03:35;;;;;;;2.17;1.60;;;18.90;99.90;;;;;;5054745;28;20032;-68
2022/09/04 05:06:29;;;;;;;1.65;1.55;;;18.90;99.90;;;;;;5054155;28;20041;-68
2022/09/04 05:09:11;;;;;;;1.50;1.40;;;18.90;99.90;;;;;;5054525;28;20032;-69
2022/09/04 05:11:56;;;;;;;;;;;18.90;99.90;;;;;;5054439;28;20025;-69
2022/09/04 05:14:31;;;;;;;1.80;1.55;;;18.80;99.90;;;;;;5054061;28;19992;-69
2022/09/04 05:17:33;;;;;;;3.40;1.42;;;18.80;99.90;;;;;;5053992;28;20386;-68
2022/09/04 05:20:38;;;;;;;2.47;1.50;;;18.80;99.90;;;;;;5054299;28;20056;-67
2022/09/04 05:23:51;;;;;;;1.70;1.35;;;18.80;99.90;;;;;;5054394;28;20040;-67
2022/09/04 05:26:25;;;;;;;3.65;1.90;;;18.80;99.90;;;;;;5037037;28;20047;-69
2022/09/04 05:28:58;;;;;;;2.42;1.50;;;18.80;99.90;;;;;;5053770;28;20543;-68
2022/09/04 05:31:40;;;;;;;1.52;1.42;;;18.80;99.90;;;;;;5054075;28;20049;-67
2022/09/04 05:34:42;;;;;;;1.95;1.38;;;18.80;99.90;;;;;;5053964;28;20108;-68
2022/09/04 05:37:42;;;;;;;1.42;1.25;;;18.90;99.90;;;;;;5054258;28;20077;-68
2022/09/04 05:40:22;;;;;;;2.25;1.80;;;18.80;99.90;;;;;;5052717;28;20056;-68
2022/09/04 05:42:53;;;;;;;2.42;1.60;;;18.90;99.90;;;;;;5053893;28;20123;-68
2022/09/04 05:45:24;;;;;;;2.20;1.50;;;18.90;99.90;;;;;;5053253;28;20029;-68
2022/09/04 05:48:24;;;;;;;1.80;1.37;;;18.90;99.90;;;;;;5053422;28;20466;-68
2022/09/04 05:51:04;;;;;;;2.13;1.48;;;19.00;99.90;;;;;;5052011;28;20109;-68
2022/09/04 05:53:42;;;;;;;1.77;1.50;;;19.00;99.90;;;;;;5052849;28;20029;-68
2022/09/04 05:56:22;;;;;;;2.35;1.58;;;19.00;99.90;;;;;;5053469;28;20515;-68
2022/09/04 05:59:06;;;;;;;4.27;1.63;;;19.00;99.90;;;;;;5053298;28;20492;-67
2022/09/04 06:01:51;;;;;;;1.95;1.48;;;19.00;99.90;;;;;;5053333;28;20036;-69
2022/09/04 06:04:54;;;;;;;2.72;1.70;;;19.00;99.90;;;;;;5053428;28;20090;-69
2022/09/04 06:07:35;;;;;;;1.67;1.20;;;19.00;99.90;;;;;;5052825;28;20067;-70
2022/09/04 06:10:06;;;;;;;;;;;19.10;99.90;;;;;;5052629;28;20040;-67
2022/09/04 06:12:55;;;;;;;1.95;1.60;;;19.10;99.90;;;;;;5052709;28;19913;-69
2022/09/04 06:15:34;;;;;;;2.63;1.60;;;19.20;99.90;;;;;;5052869;28;20029;-68
2022/09/04 06:18:14;;;;;;;1.80;1.60;;;19.20;99.90;;;;;;5053309;28;20020;-69
2022/09/04 06:20:45;;;;;;;3.55;1.63;;;19.20;99.90;;;;;;5052509;28;20123;-69
2022/09/04 06:23:27;;;;;;;2.13;1.50;;;19.20;99.90;;;;;;5051922;28;20028;-69
2022/09/04 06:26:06;;;;;;;1.70;1.25;;;19.20;99.90;;;;;;5053105;28;20029;-68
2022/09/04 06:28:49;;;;;;;2.97;1.45;;;19.30;99.90;;;;;;5052664;28;20024;-69
2022/09/04 06:31:18;;;;;;;1.92;1.50;;;19.30;99.90;;;;;;5052992;28;20041;-69
2022/09/04 06:34:14;;;;;;;2.70;1.38;;;19.40;99.90;;;;;;5052356;28;20029;-68
2022/09/04 06:36:54;;;;;;;2.35;1.38;;;19.50;99.90;;;;;;5052288;28;20032;-69
2022/09/04 06:39:29;;;;;;;1.70;1.23;;;19.50;99.90;;;;;;5052601;28;20407;-69
2022/09/04 06:42:28;;;;;;;1.67;1.48;;;19.50;99.90;;;;;;5052804;28;20025;-69
2022/09/04 06:45:00;;;;;;;1.65;1.40;;;19.60;99.90;;;;;;5052777;28;20029;-68
2022/09/04 06:48:00;;;;;;;2.03;1.60;;;19.70;99.90;;;;;;5052405;28;20037;-69
2022/09/04 06:50:44;;;;;;;4.78;2.25;;;19.70;99.90;;;;;;5052329;28;20021;-68
2022/09/04 06:53:21;;;;;;;1.98;1.70;;;19.80;99.90;;;;;;5052853;28;20064;-67
2022/09/04 06:56:01;;;;;;;2.35;1.70;;;19.80;99.90;;;;;;5052313;28;20029;-70
2022/09/04 06:59:05;;;;;;;2.33;1.70;;;19.90;99.90;;;;;;5052067;28;20493;-69
2022/09/04 07:01:40;;;;;;;2.97;2.05;;;19.90;99.90;;;;;;5051713;28;20116;-68
2022/09/04 07:04:11;;;;;;;3.63;2.60;;;19.80;99.90;;;;;;5052597;28;20033;-68
2022/09/04 07:06:58;;;;;;;3.42;2.45;;;19.90;99.90;;;;;;5052244;28;20029;-68
2022/09/04 07:09:53;;;;;;;3.92;2.25;;;20.00;99.90;;;;;;5052131;28;20407;-68
2022/09/04 07:12:56;;;;;;;4.72;2.20;;;20.10;99.90;;;;;;5052250;28;20432;-68
2022/09/04 07:15:43;;;;;;;2.33;2.13;;;20.20;99.90;;;;;;5052485;28;20029;-68
2022/09/04 07:18:30;;;;;;;2.33;1.98;;;20.40;99.90;;;;;;5052447;28;20032;-68
2022/09/04 07:21:25;;;;;;;3.35;2.03;;;20.60;99.90;;;;;;5052537;28;20472;-68
2022/09/04 07:24:01;;;;;;;1.75;1.60;;;21.70;99.90;;;;;;5052632;28;20371;-68
2022/09/04 07:27:09;;;;;;;2.90;1.90;;;22.40;97.80;;;;;;5051916;28;20112;-69
2022/09/04 07:29:51;;;;;;;1.95;1.35;;;23.90;95.10;;;;;;5051578;28;20469;-68
2022/09/04 07:32:28;;;;;;;2.00;1.70;;;24.50;89.40;;;;;;5052598;28;20115;-68
2022/09/04 07:35:01;;;;;;;1.60;1.50;;;24.00;90.00;;;;;;5052394;28;20079;-68
2022/09/04 07:37:47;;;;;;;2.83;1.95;;;24.30;88.90;;;;;;5051904;28;20025;-68
2022/09/04 07:40:18;;;;;;;2.40;1.38;;;24.30;87.90;;;;;;5052220;28;20025;-69
2022/09/04 07:42:54;;;;;;;2.83;1.80;;;24.40;86.10;;;;;;5051821;28;20389;-68
2022/09/04 07:45:29;;;;;;;2.00;1.70;;;24.40;85.50;;;;;;5052118;28;20029;-67
2022/09/04 07:48:04;;;;;;;2.45;1.70;;;24.90;84.20;;;;;;5052288;28;20365;-68
2022/09/04 07:50:39;;;;;;;2.40;1.50;;;25.00;82.40;;;;;;5051641;28;20040;-67
2022/09/04 07:53:26;;;;;;;2.50;1.85;;;26.70;78.30;;;;;;5052006;28;20111;-67
2022/09/04 07:56:05;;;;;;;2.30;1.70;;;27.40;72.90;;;;;;5031717;28;20056;-68
2022/09/04 07:58:34;;;;;;;2.58;2.00;;;27.60;69.20;;;;;;5031578;28;20431;-68
2022/09/04 08:01:18;;;;;;;4.15;1.70;;;27.70;68.00;;;;;;5032032;28;20077;-68
2022/09/04 08:03:52;;;;;;;2.72;1.50;;;28.50;68.00;;;;;;5031760;28;20057;-67
2022/09/04 08:06:30;;;;;;;1.60;1.50;;;29.00;62.20;;;;;;5032229;28;20083;-69
2022/09/04 08:08:55;;;;;;;1.70;1.48;;;28.40;62.00;;;;;;5034891;28;20028;-69
2022/09/04 08:11:38;;;;;;;2.90;1.80;;;28.10;63.20;;;;;;5035749;28;20381;-67
2022/09/04 08:14:41;;;;;;;3.65;1.88;;;27.70;62.40;;;;;;5035600;28;20088;-68
2022/09/04 08:17:42;;;;;;;1.98;1.70;;;27.60;63.70;;;;;;5035577;28;20038;-68
2022/09/04 08:20:33;;;;;;;3.60;2.10;;;28.40;62.40;;;;;;5035255;28;20032;-68
2022/09/04 08:23:37;;;;;;;2.72;2.17;;;30.00;57.10;;;;;;5035023;28;20529;-68
2022/09/04 08:26:28;;;;;;;1.73;1.52;;;31.40;54.00;;;;;;5035365;28;20032;-68
2022/09/04 08:29:20;;;;;;;3.22;1.77;;;32.60;50.70;;;;;;5034547;28;20048;-67
2022/09/04 08:32:13;;;;;;;1.90;1.67;;;33.20;49.00;;;;;;5033934;28;20414;-68
2022/09/04 08:35:17;;;;;;;3.00;1.73;;;33.60;47.00;;;;;;5034671;28;20035;-69
2022/09/04 08:38:17;;;;;;;3.88;1.58;;;34.50;46.30;;;;;;5034272;28;20474;-69
2022/09/04 08:40:49;;;;;;;1.98;1.30;;;34.90;44.00;;;;;;5033670;28;20115;-69
2022/09/04 08:43:17;;;;;;;1.73;1.60;;;35.00;44.30;;;;;;5035037;28;20029;-69
2022/09/04 08:46:16;;;;;;;2.35;1.40;;;34.10;43.50;;;;;;5034733;28;20034;-68
2022/09/04 08:48:53;;;;;;;2.75;1.60;;;32.90;45.80;;;;;;5034446;28;20029;-68
2022/09/04 08:51:32;;;;;;;2.10;1.60;;;32.50;47.50;;;;;;5034856;28;20029;-69
2022/09/04 08:54:34;;;;;;;6.20;1.60;;;31.80;47.40;;;;;;5034733;28;20065;-68
2022/09/04 08:57:06;;;;;;;1.75;1.60;;;30.90;49.00;;;;;;5034958;28;20099;-68
2022/09/04 08:59:49;;;;;;;3.03;1.70;;;30.10;50.00;;;;;;5034413;28;20025;-68
2022/09/04 09:02:27;;;;;;;2.80;1.77;;;29.60;52.50;;;;;;5034599;28;20033;-68
2022/09/04 09:05:01;;;;;;;6.45;2.00;;;29.00;52.70;;;;;;5037954;28;20392;-68
2022/09/04 09:07:48;;;;;;;1.80;1.70;;;28.80;54.80;;;;;;5054348;28;20021;-68
2022/09/04 09:10:53;;;;;;;2.15;1.63;;;28.60;54.40;;;;;;5054372;28;20025;-68
2022/09/04 09:13:41;;;;;;;2.03;1.80;;;28.40;55.10;;;;;;5045079;28;20481;-67
2022/09/04 09:16:15;;;;;;;4.32;1.50;;;28.20;55.50;;;;;;5054164;28;20120;-69
2022/09/04 09:19:21;;;;;;;1.90;1.60;;;28.20;56.40;;;;;;5053353;28;20025;-69
2022/09/04 09:22:27;;;;;;;1.60;1.35;;;28.10;55.70;;;;;;5053653;28;20025;-69
2022/09/04 09:25:19;;;;;;;2.15;1.30;;;28.10;56.30;;;;;;5053465;28;20462;-68
2022/09/04 09:27:57;;;;;;;1.30;1.20;;;27.90;56.30;;;;;;5053629;28;20032;-69
2022/09/04 09:30:23;;;;;;;1.65;1.30;;;27.70;56.90;;;;;;5053743;28;20045;-69
2022/09/04 09:33:28;;;;;;;4.13;1.30;;;27.20;57.90;;;;;;5053190;28;20469;-69
2022/09/04 09:35:57;;;;;;;2.60;1.58;;;27.10;58.80;;;;;;5053532;28;20490;-69
2022/09/04 09:38:44;;;;;;;1.50;1.40;;;27.20;59.70;;;;;;5053720;28;20033;-68
2022/09/04 09:41:15;;;;;;;1.90;1.33;;;27.20;59.40;;;;;;5053726;28;20029;-69
2022/09/04 09:43:56;;;;;;;1.50;1.40;;;27.10;59.10;;;;;;5053245;28;20087;-68
2022/09/04 09:46:30;;;;;;;1.92;1.42;;;26.90;59.70;;;;;;5053622;28;20032;-67
2022/09/04 09:49:20;;;;;;;3.20;1.40;;;27.00;60.20;;;;;;5053190;28;20481;-68
2022/09/04 09:52:43;;;;;;;3.08;1.55;;;26.90;61.10;;;;;;5051635;28;20029;-68
2022/09/04 09:55:59;;;;;;;2.42;1.50;;;26.90;60.70;;;;;;5015028;28;20060;-68
2022/09/04 09:58:49;;;;;;;2.15;1.48;;;26.90;60.60;;;;;;5031285;28;20383;-68
2022/09/04 10:01:44;;;;;;;3.30;1.58;;;26.80;60.60;;;;;;5052841;28;20037;-68
2022/09/04 10:04:28;;;;;;;2.75;1.55;;;26.70;60.90;;;;;;5053304;28;20437;-68
2022/09/04 10:07:09;;;;;;;3.35;1.80;;;26.70;61.60;;;;;;5052903;28;20108;-68
2022/09/04 10:09:36;;;;;;;;;;;26.70;61.60;;;;;;5053715;28;20108;-68
2022/09/04 10:12:07;;;;;;;2.42;1.70;;;26.60;61.80;;;;;;5052754;28;20379;-68
2022/09/04 10:15:11;;;;;;;1.67;1.58;;;26.60;62.20;;;;;;5053159;28;20349;-69
2022/09/04 10:18:13;;;;;;;3.08;1.67;;;26.70;62.80;;;;;;5052681;28;20025;-69
2022/09/04 10:21:25;;;;;;;2.28;1.58;;;26.50;62.20;;;;;;5052716;28;20060;-69
2022/09/04 10:24:12;;;;;;;2.58;1.70;;;26.50;62.30;;;;;;5052747;28;20040;-68
2022/09/04 10:26:56;;;;;;;2.00;1.63;;;26.40;61.90;;;;;;5052725;28;20067;-68
2022/09/04 10:29:41;;;;;;;3.08;1.80;;;26.40;62.10;;;;;;5053080;28;20100;-68
2022/09/04 10:32:24;;;;;;;1.55;1.40;;;26.10;62.50;;;;;;5052516;28;20491;-70
2022/09/04 10:34:55;;;;;;;3.75;1.70;;;26.00;63.00;;;;;;5052427;28;20060;-68
2022/09/04 10:37:39;;;;;;;1.65;1.33;;;25.90;63.50;;;;;;5051472;28;20027;-68
2022/09/04 10:40:37;;;;;;;1.60;1.50;;;25.80;63.60;;;;;;5052679;28;20112;-68
2022/09/04 10:43:36;;;;;;;2.40;1.75;;;25.70;64.20;;;;;;5052630;28;20089;-68
2022/09/04 10:46:17;;;;;;;3.50;1.90;;;25.60;64.80;;;;;;5052327;28;20097;-68
2022/09/04 10:48:56;;;;;;;2.72;1.95;;;25.60;65.00;;;;;;5052079;28;20118;-68
2022/09/04 10:51:36;;;;;;;2.63;2.00;;;25.60;64.80;;;;;;5052359;28;20040;-69
2022/09/04 10:54:15;;;;;;;1.45;1.35;;;25.60;65.30;;;;;;5051965;28;20082;-68
2022/09/04 10:57:23;;;;;;;2.25;1.80;;;25.70;66.20;;;;;;5051773;28;20108;-69
2022/09/04 11:00:21;;;;;;;4.03;1.83;;;25.80;65.10;;;;;;5051623;28;20064;-68
2022/09/04 11:03:15;;;;;;;2.22;1.67;;;25.80;65.60;;;;;;5049039;28;20037;-69
2022/09/04 11:06:22;;;;;;;1.73;1.60;;;25.80;65.50;;;;;;5052284;28;20409;-68
2022/09/04 11:09:02;;;;;;;1.98;1.73;;;25.80;65.30;;;;;;5051995;28;20036;-70
2022/09/04 11:12:10;;;;;;;2.55;1.80;;;25.70;66.00;;;;;;5052418;28;20087;-68
2022/09/04 11:14:39;;;;;;;2.40;2.15;;;25.60;65.70;;;;;;5052006;28;20032;-68
2022/09/04 11:17:04;;;;;;;1.98;1.70;;;25.60;65.20;;;;;;5051929;28;20466;-69
2022/09/04 11:19:33;;;;;;;3.13;1.67;;;25.50;65.10;;;;;;5052320;28;20025;-69
2022/09/04 11:21:58;;;;;;;2.40;1.42;;;25.40;64.90;;;;;;5052244;28;20466;-69
2022/09/04 11:24:46;;;;;;;3.67;1.75;;;25.40;66.10;;;;;;5052481;28;20025;-69
2022/09/04 11:27:12;;;;;;;1.85;1.50;;;25.40;66.60;;;;;;5052118;28;20462;-67
2022/09/04 11:29:55;;;;;;;2.00;1.80;;;25.40;66.80;;;;;;5052054;28;20024;-69
2022/09/04 11:32:56;;;;;;;3.90;2.05;;;25.40;66.50;;;;;;5051818;28;20127;-69
2022/09/04 11:35:49;;;;;;;2.47;1.80;;;25.50;66.40;;;;;;5052147;28;20036;-68
2022/09/04 11:38:22;;;;;;;2.45;1.80;;;25.50;66.60;;;;;;5052224;28;20124;-68
2022/09/04 11:41:10;;;;;;;2.83;1.75;;;25.30;66.80;;;;;;5051821;28;20076;-69
2022/09/04 11:44:05;;;;;;;2.72;1.88;;;25.30;67.00;;;;;;5054983;28;20394;-69
2022/09/04 11:46:52;;;;;;;2.20;1.60;;;25.30;67.80;;;;;;5055889;28;20021;-68
2022/09/04 11:49:37;;;;;;;2.22;1.92;;;25.30;67.00;;;;;;5054738;28;20047;-69
2022/09/04 11:52:27;;;;;;;2.17;1.70;;;25.30;67.10;;;;;;5055263;28;20248;-68
2022/09/04 11:55:33;;;;;;;3.80;1.90;;;25.40;66.70;;;;;;5055312;28;20460;-68
2022/09/04 11:58:15;;;;;;;2.63;1.83;;;25.40;66.60;;;;;;5054347;28;20374;-67
2022/09/04 12:00:58;;;;;;;1.83;1.58;;;25.30;66.60;;;;;;5055580;28;20079;-68
2022/09/04 12:03:43;;;;;;;4.43;1.70;;;25.30;67.20;;;;;;5055642;28;20432;-67
2022/09/04 12:06:38;;;;;;;2.20;2.00;;;25.30;66.90;;;;;;5050934;28;20040;-69
2022/09/04 12:09:25;;;;;;;2.42;1.75;;;25.30;67.50;;;;;;5049857;28;20481;-69
2022/09/04 12:12:00;;;;;;;2.28;1.77;;;25.30;66.90;;;;;;5054948;28;20079;-69
2022/09/04 12:14:46;;;;;;;3.78;2.22;;;25.40;67.10;;;;;;5054975;28;20068;-68
2022/09/04 12:17:39;;;;;;;2.92;1.60;;;25.50;67.50;;;;;;5055267;28;20037;-69
2022/09/04 12:20:16;;;;;;;1.63;1.52;;;25.50;67.00;;;;;;5054851;28;20061;-68
2022/09/04 12:23:01;;;;;;;4.10;1.75;;;25.50;66.40;;;;;;5055192;28;20089;-67
2022/09/04 12:25:48;;;;;;;2.15;1.70;;;25.50;66.50;;;;;;5055250;28;20048;-68
2022/09/04 12:28:19;;;;;;;2.10;1.60;;;25.50;67.50;;;;;;5055086;28;20032;-69
2022/09/04 12:31:24;;;;;;;4.45;2.20;;;25.40;66.70;;;;;;5054504;28;20060;-68
2022/09/04 12:34:08;;;;;;;2.30;1.85;;;25.40;67.00;;;;;;5054262;28;20082;-69
2022/09/04 12:37:00;;;;;;;2.30;1.95;;;25.30;67.70;;;;;;5053827;28;20385;-70
2022/09/04 12:39:44;;;;;;;2.28;1.90;;;25.30;69.90;;;;;;5054823;28;20037;-68
2022/09/04 12:42:16;;;;;;;4.13;1.83;;;25.30;72.40;;;;;;5054441;28;20025;-69
2022/09/04 12:44:59;;;;;;;2.20;1.80;;;25.30;73.60;;;;;;5055203;28;20032;-68
2022/09/04 12:47:44;;;;;;;2.85;1.92;;;25.20;74.10;;;;;;5054979;28;20031;-68
2022/09/04 12:50:36;;;;;;;2.40;1.83;;;25.20;74.60;;;;;;5055015;28;20037;-68
2022/09/04 12:53:03;;;;;;;1.98;1.77;;;25.10;73.60;;;;;;5054537;28;20108;-69
2022/09/04 12:55:51;;;;;;;2.55;1.92;;;25.10;73.60;;;;;;5055127;28;20480;-68
2022/09/04 12:58:25;;;;;;;4.18;1.80;;;25.00;72.30;;;;;;5055470;28;20104;-68
2022/09/04 13:00:51;;;;;;;2.75;1.80;;;25.00;72.30;;;;;;5054688;28;20474;-68
2022/09/04 13:03:38;;;;;;;2.53;1.67;;;24.90;71.80;;;;;;5054427;28;20040;-69
2022/09/04 13:06:26;;;;;;;1.42;1.33;;;24.80;70.60;;;;;;5054084;28;20108;-69
2022/09/04 13:09:28;;;;;;;2.10;1.35;;;24.50;69.00;;;;;;5054067;28;20033;-68
2022/09/04 13:12:08;;;;;;;1.73;1.60;;;24.50;71.10;;;;;;5054010;28;20104;-70
2022/09/04 13:14:52;;;;;;;2.45;1.55;;;24.50;72.20;;;;;;5054256;28;20037;-68
2022/09/04 13:17:20;;;;;;;3.83;1.65;;;24.50;73.20;;;;;;5054021;28;20501;-69
2022/09/04 13:20:23;;;;;;;3.00;1.95;;;24.60;72.90;;;;;;5054146;28;20473;-69
2022/09/04 13:22:52;;;;;;;2.90;2.05;;;24.40;72.90;;;;;;5054178;28;20058;-69
2022/09/04 13:26:14;;;;;;;2.45;1.85;;;24.40;73.70;;;;;;5053955;28;20378;-68
2022/09/04 13:29:14;;;;;;;2.70;1.92;;;24.40;72.60;;;;;;5045633;28;20044;-68
2022/09/04 13:31:46;;;;;;;2.10;1.90;;;24.20;73.20;;;;;;5054117;28;20486;-69
2022/09/04 13:34:23;;;;;;;4.78;2.13;;;24.20;73.30;;;;;;5053024;28;20064;-69
2022/09/04 13:37:19;;;;;;;2.20;2.00;;;24.10;73.40;;;;;;5053807;28;20107;-67
2022/09/04 13:40:03;;;;;;;3.95;2.42;;;24.10;74.10;;;;;;5053873;28;20083;-69
2022/09/04 13:43:13;;;;;;;3.78;2.33;;;24.10;73.50;;;;;;5054000;28;20037;-68
2022/09/04 13:46:03;;;;;;;1.67;1.58;;;24.20;72.40;;;;;;5031338;28;20036;-68
2022/09/04 13:48:41;;;;;;;1.88;1.77;;;24.10;72.60;;;;;;5031488;28;20494;-69
2022/09/04 13:51:15;;;;;;;4.80;1.80;;;24.10;72.90;;;;;;5047798;28;20033;-68
2022/09/04 13:54:05;;;;;;;1.90;1.70;;;24.10;73.40;;;;;;5053249;28;20033;-68
2022/09/04 13:56:51;;;;;;;2.35;2.15;;;24.00;73.60;;;;;;5053567;28;20025;-68
2022/09/04 13:59:19;;;;;;;2.38;2.10;;;24.00;74.30;;;;;;5052962;28;20082;-69
2022/09/04 14:01:50;;;;;;;4.55;2.38;;;23.90;75.10;;;;;;5053078;28;20025;-69
2022/09/04 14:04:33;;;;;;;3.88;2.15;;;23.90;75.20;;;;;;5052774;28;20029;-69
2022/09/04 14:07:05;;;;;;;4.68;2.38;;;23.90;75.70;;;;;;5052845;28;20032;-68
2022/09/04 14:09:35;;;;;;;3.20;2.03;;;23.90;75.80;;;;;;5053288;28;20381;-68
2022/09/04 14:12:07;;;;;;;4.28;2.10;;;23.90;75.80;;;;;;5052543;28;20384;-68
2022/09/04 14:15:06;;;;;;;2.72;2.00;;;23.90;75.30;;;;;;5051781;28;20390;-68
2022/09/04 14:17:43;;;;;;;2.75;1.83;;;24.00;75.30;;;;;;5053275;28;20025;-68
2022/09/04 14:20:27;;;;;;;1.70;1.60;;;24.00;74.50;;;;;;5052782;28;20533;-67